createdAt,value
2019-03-10T00:00:05.810Z,73.60
2019-03-10T00:01:05.929Z,73.60
2019-03-10T00:02:05.771Z,73.60
2019-03-10T00:03:05.896Z,73.60
2019-03-10T00:04:05.788Z,73.50
2019-03-10T00:05:08.407Z,73.60
2019-03-10T00:06:05.781Z,73.60
2019-03-10T00:07:05.767Z,73.60
2019-03-10T00:08:08.415Z,73.50
2019-03-10T00:09:05.837Z,73.50
2019-03-10T00:11:05.768Z,73.40
2019-03-10T00:11:10.823Z,73.50
2019-03-10T00:12:05.786Z,73.40
2019-03-10T00:13:05.949Z,73.40
2019-03-10T00:14:05.807Z,73.40
2019-03-10T00:15:05.838Z,73.30
2019-03-10T00:16:05.788Z,73.30
2019-03-10T00:17:08.503Z,73.40
2019-03-10T00:18:07.959Z,73.30
2019-03-10T00:19:08.374Z,73.30
2019-03-10T00:20:07.913Z,73.30
2019-03-10T00:21:10.889Z,73.30
2019-03-10T00:22:08.319Z,73.30
2019-03-10T00:23:05.777Z,73.30
2019-03-10T00:24:05.899Z,73.20
2019-03-10T00:25:05.871Z,73.40
2019-03-10T00:26:05.811Z,73.30
2019-03-10T00:27:05.862Z,73.30
2019-03-10T00:28:05.798Z,73.30
2019-03-10T00:30:05.846Z,73.30
2019-03-10T00:30:10.653Z,73.30
2019-03-10T00:31:05.797Z,73.30
2019-03-10T00:32:05.791Z,73.30
2019-03-10T00:33:05.873Z,73.30
2019-03-10T00:34:05.856Z,73.30
2019-03-10T00:35:05.785Z,73.30
2019-03-10T00:36:05.853Z,73.30
2019-03-10T00:37:05.818Z,73.30
2019-03-10T00:38:05.842Z,73.30
2019-03-10T00:39:05.812Z,73.40
2019-03-10T00:40:05.878Z,73.40
2019-03-10T00:41:05.793Z,73.40
2019-03-10T00:42:05.926Z,73.40
2019-03-10T00:44:05.953Z,73.50
2019-03-10T00:44:10.949Z,73.50
2019-03-10T00:45:10.864Z,73.50
2019-03-10T00:46:05.821Z,73.50
2019-03-10T00:47:05.822Z,73.60
2019-03-10T00:48:05.963Z,73.60
2019-03-10T00:50:13.442Z,73.70
2019-03-10T00:51:05.859Z,73.70
2019-03-10T00:52:05.831Z,73.80
2019-03-10T00:53:08.370Z,74.30
2019-03-10T00:54:05.798Z,74.30
2019-03-10T00:55:05.819Z,74.50
2019-03-10T00:56:05.868Z,74.50
2019-03-10T00:57:05.861Z,74.70
2019-03-10T00:58:05.841Z,74.70
2019-03-10T00:59:05.824Z,74.80
2019-03-10T01:00:05.864Z,75.00
2019-03-10T01:01:05.859Z,74.90
2019-03-10T01:02:05.847Z,74.90
2019-03-10T01:03:05.805Z,74.90
2019-03-10T01:04:05.904Z,75.20
2019-03-10T01:06:05.811Z,75.30
2019-03-10T01:07:05.837Z,75.30
2019-03-10T01:08:05.833Z,75.30
2019-03-10T01:09:05.844Z,75.50
2019-03-10T01:10:05.838Z,75.40
2019-03-10T01:11:05.874Z,75.40
2019-03-10T01:12:05.895Z,75.30
2019-03-10T01:13:05.846Z,75.20
2019-03-10T01:14:05.879Z,75.40
2019-03-10T01:15:05.859Z,75.40
2019-03-10T01:16:05.880Z,75.40
2019-03-10T01:17:05.840Z,75.40
2019-03-10T01:18:05.869Z,75.30
2019-03-10T01:19:05.837Z,75.40
2019-03-10T01:20:05.845Z,75.40
2019-03-10T01:21:05.874Z,75.40
2019-03-10T01:22:05.879Z,75.40
2019-03-10T01:23:05.895Z,75.30
2019-03-10T01:24:05.855Z,75.30
2019-03-10T01:25:05.962Z,75.30
2019-03-10T01:26:05.849Z,75.30
2019-03-10T01:27:05.954Z,75.40
2019-03-10T01:28:05.923Z,75.40
2019-03-10T01:29:05.897Z,75.60
2019-03-10T01:30:06.001Z,75.50
2019-03-10T01:31:05.888Z,75.50
2019-03-10T01:32:05.898Z,75.50
2019-03-10T01:33:05.881Z,75.50
2019-03-10T01:34:05.872Z,75.40
2019-03-10T01:35:05.864Z,75.50
2019-03-10T01:36:05.880Z,75.50
2019-03-10T01:37:05.871Z,75.50
2019-03-10T01:38:05.879Z,75.40
2019-03-10T01:39:05.909Z,75.40
2019-03-10T01:40:05.866Z,75.40
2019-03-10T01:41:05.853Z,75.40
2019-03-10T01:42:05.896Z,75.40
2019-03-10T01:43:05.844Z,75.40
2019-03-10T01:44:05.996Z,75.40
2019-03-10T01:45:05.871Z,75.40
2019-03-10T01:46:05.905Z,75.30
2019-03-10T01:47:05.891Z,75.30
2019-03-10T01:48:05.854Z,75.30
2019-03-10T01:49:10.125Z,75.30
2019-03-10T01:50:05.878Z,75.20
2019-03-10T01:51:05.877Z,75.10
2019-03-10T01:52:05.931Z,75.20
2019-03-10T01:53:05.899Z,75.10
2019-03-10T01:54:05.925Z,75.10
2019-03-10T01:55:05.897Z,75.00
2019-03-10T01:56:05.908Z,75.00
2019-03-10T01:57:05.911Z,75.00
2019-03-10T01:58:05.871Z,75.00
2019-03-10T01:59:05.888Z,75.00
2019-03-10T02:00:07.542Z,74.90
2019-03-10T02:01:05.893Z,74.90
2019-03-10T02:02:05.942Z,74.90
2019-03-10T02:03:05.873Z,74.90
2019-03-10T02:04:05.884Z,74.90
2019-03-10T02:05:05.889Z,74.90
2019-03-10T02:06:05.892Z,74.90
2019-03-10T02:07:05.897Z,74.80
2019-03-10T02:08:05.907Z,74.80
2019-03-10T02:09:05.908Z,74.80
2019-03-10T02:10:05.931Z,74.70
2019-03-10T02:11:05.924Z,74.70
2019-03-10T02:12:05.883Z,74.60
2019-03-10T02:13:05.887Z,74.60
2019-03-10T02:14:05.881Z,74.50
2019-03-10T02:15:05.906Z,74.50
2019-03-10T02:16:05.989Z,74.40
2019-03-10T02:17:05.904Z,74.40
2019-03-10T02:18:05.954Z,74.40
2019-03-10T02:19:05.942Z,74.30
2019-03-10T02:20:05.908Z,74.30
2019-03-10T02:21:05.972Z,74.20
2019-03-10T02:22:05.940Z,74.20
2019-03-10T02:23:05.932Z,74.20
2019-03-10T02:24:05.920Z,74.20
2019-03-10T02:25:05.932Z,74.10
2019-03-10T02:26:05.843Z,74.10
2019-03-10T02:27:05.902Z,74.00
2019-03-10T02:28:05.900Z,74.00
2019-03-10T02:29:05.899Z,74.00
2019-03-10T02:30:06.073Z,74.00
2019-03-10T02:31:05.937Z,74.00
2019-03-10T02:32:06.032Z,74.00
2019-03-10T02:33:05.919Z,74.00
2019-03-10T02:34:05.917Z,73.90
2019-03-10T02:35:05.915Z,73.90
2019-03-10T02:36:06.004Z,73.90
2019-03-10T02:37:05.914Z,73.80
2019-03-10T02:38:05.961Z,73.70
2019-03-10T02:39:05.924Z,73.70
2019-03-10T02:40:05.995Z,73.60
2019-03-10T02:41:05.948Z,73.60
2019-03-10T02:42:05.956Z,73.60
2019-03-10T02:43:05.947Z,73.50
2019-03-10T02:45:06.033Z,73.40
2019-03-10T02:46:05.942Z,73.40
2019-03-10T02:47:05.935Z,73.30
2019-03-10T02:48:06.014Z,73.20
2019-03-10T02:49:05.943Z,73.10
2019-03-10T02:50:06.055Z,73.10
2019-03-10T02:51:05.950Z,73.20
2019-03-10T02:52:05.969Z,73.00
2019-03-10T02:53:05.932Z,73.00
2019-03-10T02:54:05.973Z,73.00
2019-03-10T02:56:10.970Z,73.10
2019-03-10T02:57:06.010Z,72.80
2019-03-10T02:57:11.124Z,72.90
2019-03-10T02:58:05.972Z,72.80
2019-03-10T02:59:07.588Z,72.70
2019-03-10T03:00:06.008Z,72.70
2019-03-10T03:01:05.940Z,72.60
2019-03-10T03:02:05.998Z,72.60
2019-03-10T03:03:05.911Z,72.50
2019-03-10T03:04:06.013Z,72.50
2019-03-10T03:05:05.961Z,72.50
2019-03-10T03:06:05.947Z,72.40
2019-03-10T03:07:05.923Z,72.30
2019-03-10T03:08:05.943Z,72.20
2019-03-10T03:09:06.025Z,72.10
2019-03-10T03:10:05.976Z,72.10
2019-03-10T03:11:05.942Z,72.00
2019-03-10T03:12:05.974Z,72.00
2019-03-10T03:13:05.959Z,72.00
2019-03-10T03:14:05.952Z,71.90
2019-03-10T03:15:06.108Z,71.80
2019-03-10T03:16:05.999Z,71.70
2019-03-10T03:17:05.968Z,71.50
2019-03-10T03:18:05.985Z,71.50
2019-03-10T03:19:06.006Z,71.40
2019-03-10T03:20:06.052Z,71.40
2019-03-10T03:21:05.978Z,71.30
2019-03-10T03:22:05.963Z,71.30
2019-03-10T03:23:06.099Z,71.30
2019-03-10T03:24:06.056Z,71.30
2019-03-10T03:25:05.979Z,71.20
2019-03-10T03:27:05.943Z,71.40
2019-03-10T03:27:10.792Z,71.20
2019-03-10T03:28:06.049Z,71.30
2019-03-10T03:29:05.963Z,71.30
2019-03-10T03:30:06.518Z,71.40
2019-03-10T03:31:06.035Z,71.50
2019-03-10T03:32:06.165Z,71.50
2019-03-10T03:33:06.082Z,71.60
2019-03-10T03:34:06.145Z,71.60
2019-03-10T03:35:06.051Z,71.70
2019-03-10T03:36:06.089Z,71.80
2019-03-10T03:37:05.956Z,71.80
2019-03-10T03:38:05.988Z,71.90
2019-03-10T03:39:06.040Z,72.10
2019-03-10T03:40:05.993Z,72.10
2019-03-10T03:41:05.994Z,72.30
2019-03-10T03:42:06.079Z,72.50
2019-03-10T03:43:06.027Z,72.60
2019-03-10T03:44:06.002Z,72.70
2019-03-10T03:45:05.978Z,72.70
2019-03-10T03:47:06.015Z,73.00
2019-03-10T03:48:06.144Z,73.00
2019-03-10T03:49:06.018Z,73.10
2019-03-10T03:50:05.963Z,73.10
2019-03-10T03:51:06.014Z,73.20
2019-03-10T03:52:06.101Z,73.30
2019-03-10T03:53:05.997Z,73.50
2019-03-10T03:54:06.017Z,73.50
2019-03-10T03:55:06.063Z,73.70
2019-03-10T03:57:06.036Z,73.70
2019-03-10T03:58:05.989Z,73.80
2019-03-10T04:00:06.064Z,73.80
2019-03-10T04:01:05.982Z,73.90
2019-03-10T04:02:06.024Z,74.00
2019-03-10T04:03:06.015Z,74.00
2019-03-10T04:04:06.032Z,74.00
2019-03-10T04:05:06.057Z,74.10
2019-03-10T04:06:06.027Z,74.00
2019-03-10T04:07:06.007Z,74.00
2019-03-10T04:08:07.687Z,74.00
2019-03-10T04:09:06.006Z,74.00
2019-03-10T04:10:06.007Z,73.90
2019-03-10T04:11:06.055Z,74.00
2019-03-10T04:12:07.782Z,74.00
2019-03-10T04:13:06.039Z,74.10
2019-03-10T04:14:06.052Z,74.00
2019-03-10T04:15:06.080Z,74.10
2019-03-10T04:16:06.013Z,74.20
2019-03-10T04:17:06.042Z,74.30
2019-03-10T04:18:06.031Z,74.40
2019-03-10T04:19:06.034Z,74.50
2019-03-10T04:20:07.683Z,74.50
2019-03-10T04:21:06.012Z,74.50
2019-03-10T04:22:06.012Z,74.60
2019-03-10T04:23:06.048Z,74.60
2019-03-10T04:24:06.107Z,74.70
2019-03-10T04:25:06.030Z,74.70
2019-03-10T04:26:06.061Z,74.70
2019-03-10T04:27:06.057Z,74.80
2019-03-10T04:28:06.030Z,74.90
2019-03-10T04:29:06.056Z,74.90
2019-03-10T04:30:06.057Z,74.90
2019-03-10T04:31:06.064Z,75.00
2019-03-10T04:32:06.094Z,75.10
2019-03-10T04:33:06.055Z,75.00
2019-03-10T04:34:06.094Z,75.20
2019-03-10T04:35:10.130Z,75.20
2019-03-10T04:36:06.050Z,75.20
2019-03-10T04:37:06.054Z,75.30
2019-03-10T04:38:06.055Z,75.30
2019-03-10T04:39:06.028Z,75.40
2019-03-10T04:40:06.114Z,75.40
2019-03-10T04:41:06.093Z,75.40
2019-03-10T04:42:06.013Z,75.40
2019-03-10T04:43:06.044Z,75.30
2019-03-10T04:44:06.083Z,75.20
2019-03-10T04:45:06.041Z,75.30
2019-03-10T04:46:06.028Z,75.20
2019-03-10T04:47:06.053Z,75.20
2019-03-10T04:48:06.047Z,75.20
2019-03-10T04:49:10.117Z,75.30
2019-03-10T04:50:06.041Z,75.30
2019-03-10T04:51:06.033Z,75.40
2019-03-10T04:52:06.032Z,75.40
2019-03-10T04:53:06.012Z,75.40
2019-03-10T04:54:06.030Z,75.40
2019-03-10T04:55:10.240Z,75.50
2019-03-10T04:56:06.101Z,75.50
2019-03-10T04:57:06.038Z,75.50
2019-03-10T04:58:06.052Z,75.60
2019-03-10T04:59:06.030Z,75.60
2019-03-10T05:00:06.069Z,75.60
2019-03-10T05:02:06.126Z,75.60
2019-03-10T05:03:06.071Z,75.60
2019-03-10T05:04:06.090Z,75.60
2019-03-10T05:05:06.023Z,75.70
2019-03-10T05:06:06.064Z,75.60
2019-03-10T05:07:06.063Z,75.60
2019-03-10T05:08:06.058Z,75.60
2019-03-10T05:09:06.065Z,75.50
2019-03-10T05:10:06.148Z,75.60
2019-03-10T05:11:06.114Z,75.50
2019-03-10T05:12:06.092Z,75.60
2019-03-10T05:13:06.072Z,75.60
2019-03-10T05:14:06.108Z,75.60
2019-03-10T05:15:06.107Z,75.50
2019-03-10T05:16:06.096Z,75.50
2019-03-10T05:17:06.080Z,75.50
2019-03-10T05:18:06.071Z,75.50
2019-03-10T05:19:06.072Z,75.50
2019-03-10T05:20:06.109Z,75.60
2019-03-10T05:21:10.403Z,75.50
2019-03-10T05:22:06.055Z,75.50
2019-03-10T05:23:06.071Z,75.50
2019-03-10T05:24:06.095Z,75.60
2019-03-10T05:25:10.702Z,75.60
2019-03-10T05:26:06.074Z,75.60
2019-03-10T05:27:06.179Z,75.60
2019-03-10T05:28:06.093Z,75.60
2019-03-10T05:29:06.064Z,75.60
2019-03-10T05:30:06.169Z,75.60
2019-03-10T05:31:06.071Z,75.60
2019-03-10T05:32:06.092Z,75.60
2019-03-10T05:33:06.090Z,75.60
2019-03-10T05:34:06.086Z,75.60
2019-03-10T05:35:06.075Z,75.60
2019-03-10T05:36:06.099Z,75.50
2019-03-10T05:37:06.058Z,75.60
2019-03-10T05:38:06.093Z,75.60
2019-03-10T05:39:06.103Z,75.60
2019-03-10T05:40:06.099Z,75.50
2019-03-10T05:41:06.077Z,75.50
2019-03-10T05:42:06.112Z,75.50
2019-03-10T05:43:06.171Z,75.40
2019-03-10T05:44:06.158Z,75.50
2019-03-10T05:45:06.079Z,75.40
2019-03-10T05:46:06.109Z,75.30
2019-03-10T05:47:06.371Z,75.40
2019-03-10T05:48:06.092Z,75.40
2019-03-10T05:49:06.116Z,75.10
2019-03-10T05:50:06.108Z,75.20
2019-03-10T05:51:06.094Z,75.00
2019-03-10T05:52:06.103Z,74.90
2019-03-10T05:53:06.121Z,74.70
2019-03-10T05:54:06.126Z,74.60
2019-03-10T05:55:06.111Z,74.50
2019-03-10T05:56:06.114Z,74.50
2019-03-10T05:57:09.809Z,74.20
2019-03-10T05:58:06.130Z,74.20
2019-03-10T05:59:06.136Z,74.00
2019-03-10T06:00:06.118Z,74.00
2019-03-10T06:01:06.110Z,73.90
2019-03-10T06:02:06.147Z,73.80
2019-03-10T06:03:06.115Z,73.70
2019-03-10T06:04:06.091Z,73.60
2019-03-10T06:05:06.616Z,73.50
2019-03-10T06:06:06.071Z,73.30
2019-03-10T06:07:06.134Z,73.30
2019-03-10T06:08:06.105Z,73.30
2019-03-10T06:09:06.246Z,73.30
2019-03-10T06:10:06.163Z,73.30
2019-03-10T06:11:06.100Z,73.30
2019-03-10T06:12:06.123Z,73.20
2019-03-10T06:13:06.095Z,73.20
2019-03-10T06:14:06.130Z,73.20
2019-03-10T06:15:06.152Z,73.20
2019-03-10T06:16:06.132Z,73.10
2019-03-10T06:17:06.146Z,73.10
2019-03-10T06:18:14.291Z,73.10
2019-03-10T06:19:06.131Z,73.10
2019-03-10T06:20:06.110Z,73.10
2019-03-10T06:21:06.152Z,73.10
2019-03-10T06:22:06.121Z,73.10
2019-03-10T06:23:06.140Z,73.00
2019-03-10T06:24:07.798Z,73.10
2019-03-10T06:25:06.185Z,73.10
2019-03-10T06:28:06.149Z,73.10
2019-03-10T06:28:10.968Z,73.10
2019-03-10T06:29:06.159Z,73.20
2019-03-10T06:30:06.165Z,73.20
2019-03-10T06:31:06.197Z,73.20
2019-03-10T06:32:06.149Z,73.20
2019-03-10T06:33:06.128Z,73.20
2019-03-10T06:34:06.099Z,73.20
2019-03-10T06:35:06.162Z,73.20
2019-03-10T06:36:06.138Z,73.20
2019-03-10T06:37:06.144Z,73.30
2019-03-10T06:38:06.137Z,73.30
2019-03-10T06:39:06.112Z,73.30
2019-03-10T06:40:06.148Z,73.40
2019-03-10T06:41:06.191Z,73.40
2019-03-10T06:42:06.212Z,73.60
2019-03-10T06:43:06.159Z,73.60
2019-03-10T06:44:06.165Z,73.70
2019-03-10T06:45:06.153Z,73.80
2019-03-10T06:46:06.159Z,73.90
2019-03-10T06:47:06.241Z,74.00
2019-03-10T06:48:06.151Z,74.10
2019-03-10T06:49:06.144Z,74.50
2019-03-10T06:50:06.133Z,74.70
2019-03-10T06:51:06.223Z,74.70
2019-03-10T06:52:06.169Z,75.30
2019-03-10T06:53:06.135Z,75.80
2019-03-10T06:56:06.171Z,76.50
2019-03-10T06:56:10.934Z,76.50
2019-03-10T06:57:06.184Z,76.80
2019-03-10T06:58:06.265Z,76.90
2019-03-10T06:59:06.249Z,76.80
2019-03-10T07:00:06.164Z,77.50
2019-03-10T07:01:06.159Z,77.70
2019-03-10T07:02:06.195Z,77.90
2019-03-10T07:03:06.246Z,78.10
2019-03-10T07:04:06.225Z,78.10
2019-03-10T07:05:06.135Z,78.40
2019-03-10T07:06:06.218Z,78.70
2019-03-10T07:07:06.149Z,78.60
2019-03-10T07:08:06.202Z,78.40
2019-03-10T07:09:06.159Z,78.60
2019-03-10T07:10:06.211Z,78.80
2019-03-10T07:11:06.181Z,78.80
2019-03-10T07:12:06.135Z,79.00
2019-03-10T07:13:06.171Z,79.10
2019-03-10T07:14:06.181Z,79.30
2019-03-10T07:15:06.170Z,79.40
2019-03-10T07:16:06.172Z,79.50
2019-03-10T07:17:06.202Z,79.40
2019-03-10T07:18:06.190Z,79.60
2019-03-10T07:19:06.263Z,79.70
2019-03-10T07:20:06.182Z,79.90
2019-03-10T07:21:06.201Z,80.40
2019-03-10T07:22:06.200Z,80.60
2019-03-10T07:23:06.178Z,80.80
2019-03-10T07:24:06.181Z,81.00
2019-03-10T07:25:06.200Z,81.10
2019-03-10T07:27:06.174Z,81.30
2019-03-10T07:28:06.189Z,81.40
2019-03-10T07:29:06.258Z,81.60
2019-03-10T07:30:06.193Z,81.60
2019-03-10T07:31:06.215Z,81.50
2019-03-10T07:32:08.766Z,81.80
2019-03-10T07:33:06.213Z,81.80
2019-03-10T07:34:06.214Z,82.00
2019-03-10T07:35:06.233Z,81.90
2019-03-10T07:36:06.222Z,82.00
2019-03-10T07:37:06.192Z,82.00
2019-03-10T07:38:06.186Z,82.00
2019-03-10T07:39:06.227Z,82.00
2019-03-10T07:40:06.216Z,82.00
2019-03-10T07:41:06.180Z,82.00
2019-03-10T07:42:06.205Z,82.00
2019-03-10T07:43:06.216Z,82.00
2019-03-10T07:44:06.218Z,82.10
2019-03-10T07:45:06.195Z,82.10
2019-03-10T07:46:06.247Z,82.10
2019-03-10T07:47:06.244Z,82.20
2019-03-10T07:48:06.213Z,82.10
2019-03-10T07:50:10.217Z,82.30
2019-03-10T07:50:11.256Z,82.10
2019-03-10T07:51:06.206Z,82.30
2019-03-10T07:52:06.224Z,82.40
2019-03-10T07:53:06.201Z,82.50
2019-03-10T07:54:06.417Z,82.40
2019-03-10T07:55:06.212Z,82.30
2019-03-10T07:56:06.257Z,82.50
2019-03-10T07:57:06.243Z,82.50
2019-03-10T07:58:06.203Z,82.50
2019-03-10T07:59:07.958Z,83.00
2019-03-10T08:00:06.330Z,83.00
2019-03-10T08:01:06.210Z,83.00
2019-03-10T08:02:06.256Z,82.80
2019-03-10T08:03:06.325Z,82.80
2019-03-10T08:04:06.215Z,82.60
2019-03-10T08:05:06.237Z,82.60
2019-03-10T08:06:06.297Z,82.80
2019-03-10T08:07:06.285Z,82.70
2019-03-10T08:08:07.978Z,82.60
2019-03-10T08:09:06.238Z,82.60
2019-03-10T08:10:06.265Z,82.50
2019-03-10T08:11:06.229Z,82.60
2019-03-10T08:12:06.243Z,82.60
2019-03-10T08:13:06.265Z,82.50
2019-03-10T08:14:06.235Z,82.50
2019-03-10T08:15:06.217Z,82.50
2019-03-10T08:16:06.210Z,82.50
2019-03-10T08:17:06.296Z,82.50
2019-03-10T08:18:06.318Z,82.50
2019-03-10T08:19:06.277Z,82.70
2019-03-10T08:20:06.268Z,82.80
2019-03-10T08:21:10.395Z,82.70
2019-03-10T08:22:06.266Z,82.70
2019-03-10T08:23:10.332Z,82.70
2019-03-10T08:24:06.217Z,82.70
2019-03-10T08:25:06.262Z,82.70
2019-03-10T08:26:06.241Z,83.00
2019-03-10T08:27:06.217Z,83.20
2019-03-10T08:28:06.236Z,83.20
2019-03-10T08:29:06.258Z,83.10
2019-03-10T08:30:06.252Z,83.20
2019-03-10T08:31:06.245Z,83.20
2019-03-10T08:32:06.232Z,83.20
2019-03-10T08:33:06.268Z,83.10
2019-03-10T08:34:06.269Z,83.20
2019-03-10T08:35:06.236Z,83.30
2019-03-10T08:36:06.206Z,83.30
2019-03-10T08:37:06.291Z,83.30
2019-03-10T08:38:06.259Z,83.40
2019-03-10T08:39:06.255Z,83.50
2019-03-10T08:40:10.529Z,83.90
2019-03-10T08:41:06.257Z,84.30
2019-03-10T08:42:06.262Z,84.40
2019-03-10T08:43:06.280Z,84.50
2019-03-10T08:44:06.329Z,84.50
2019-03-10T08:45:06.255Z,84.70
2019-03-10T08:46:06.259Z,84.70
2019-03-10T08:47:06.260Z,84.70
2019-03-10T08:48:06.253Z,84.80
2019-03-10T08:49:06.278Z,84.90
2019-03-10T08:50:06.279Z,85.10
2019-03-10T08:51:06.291Z,85.00
2019-03-10T08:52:06.256Z,85.20
2019-03-10T08:53:06.324Z,85.50
2019-03-10T08:54:06.257Z,85.50
2019-03-10T08:55:06.264Z,85.60
2019-03-10T08:56:06.465Z,85.70
2019-03-10T08:57:06.280Z,85.60
2019-03-10T08:58:06.278Z,85.60
2019-03-10T08:59:06.269Z,85.50
2019-03-10T09:00:06.251Z,85.70
2019-03-10T09:01:06.286Z,85.80
2019-03-10T09:03:10.226Z,85.90
2019-03-10T09:04:06.260Z,85.90
2019-03-10T09:05:06.292Z,86.10
2019-03-10T09:06:06.308Z,85.90
2019-03-10T09:07:06.315Z,85.90
2019-03-10T09:08:06.264Z,85.80
2019-03-10T09:09:06.310Z,85.90
2019-03-10T09:10:06.290Z,85.90
2019-03-10T09:11:06.271Z,86.10
2019-03-10T09:12:06.274Z,85.90
2019-03-10T09:13:06.279Z,85.90
2019-03-10T09:14:06.316Z,85.80
2019-03-10T09:15:06.280Z,86.00
2019-03-10T09:16:06.305Z,85.90
2019-03-10T09:17:06.327Z,85.90
2019-03-10T09:18:06.345Z,85.90
2019-03-10T09:19:06.271Z,85.90
2019-03-10T09:20:06.294Z,85.90
2019-03-10T09:21:06.250Z,86.00
2019-03-10T09:22:06.289Z,86.10
2019-03-10T09:23:06.274Z,86.10
2019-03-10T09:24:06.312Z,86.00
2019-03-10T09:25:06.316Z,85.90
2019-03-10T09:26:06.332Z,86.00
2019-03-10T09:27:06.297Z,85.80
2019-03-10T09:28:06.311Z,85.90
2019-03-10T09:29:06.331Z,85.90
2019-03-10T09:30:06.321Z,85.70
2019-03-10T09:31:06.320Z,85.70
2019-03-10T09:32:06.308Z,85.70
2019-03-10T09:33:06.305Z,85.60
2019-03-10T09:34:06.307Z,85.50
2019-03-10T09:35:06.313Z,85.50
2019-03-10T09:36:10.590Z,85.50
2019-03-10T09:37:06.322Z,85.40
2019-03-10T09:38:06.277Z,85.50
2019-03-10T09:39:06.335Z,85.80
2019-03-10T09:40:06.378Z,86.20
2019-03-10T09:41:06.338Z,86.20
2019-03-10T09:42:06.286Z,86.40
2019-03-10T09:43:06.331Z,86.30
2019-03-10T09:44:06.346Z,86.20
2019-03-10T09:45:06.334Z,86.20
2019-03-10T09:46:06.268Z,86.30
2019-03-10T09:47:06.341Z,86.20
2019-03-10T09:48:06.320Z,86.20
2019-03-10T09:49:10.410Z,86.40
2019-03-10T09:50:06.327Z,86.40
2019-03-10T09:51:06.291Z,86.30
2019-03-10T09:52:06.311Z,86.30
2019-03-10T09:53:06.345Z,86.60
2019-03-10T09:54:06.333Z,86.50
2019-03-10T09:55:06.424Z,86.50
2019-03-10T09:56:06.294Z,86.50
2019-03-10T09:57:06.323Z,86.40
2019-03-10T09:58:06.313Z,86.40
2019-03-10T09:59:06.333Z,86.30
2019-03-10T10:00:06.327Z,86.20
2019-03-10T10:01:08.071Z,86.00
2019-03-10T10:02:06.344Z,86.00
2019-03-10T10:03:06.295Z,85.90
2019-03-10T10:04:06.390Z,85.90
2019-03-10T10:05:06.337Z,85.90
2019-03-10T10:06:06.390Z,86.00
2019-03-10T10:07:06.414Z,86.00
2019-03-10T10:08:06.326Z,85.90
2019-03-10T10:09:06.391Z,85.90
2019-03-10T10:10:06.336Z,85.80
2019-03-10T10:11:06.425Z,85.90
2019-03-10T10:12:13.986Z,85.90
2019-03-10T10:13:10.158Z,86.00
2019-03-10T10:14:06.387Z,86.00
2019-03-10T10:15:06.319Z,86.00
2019-03-10T10:16:06.327Z,86.10
2019-03-10T10:17:06.379Z,86.00
2019-03-10T10:18:06.323Z,86.00
2019-03-10T10:19:06.333Z,86.00
2019-03-10T10:20:06.348Z,86.00
2019-03-10T10:21:07.940Z,86.10
2019-03-10T10:22:06.394Z,86.10
2019-03-10T10:23:06.367Z,86.30
2019-03-10T10:24:06.353Z,86.40
2019-03-10T10:25:06.380Z,86.40
2019-03-10T10:26:06.410Z,86.30
2019-03-10T10:27:06.404Z,86.40
2019-03-10T10:28:06.362Z,86.40
2019-03-10T10:29:06.338Z,86.30
2019-03-10T10:30:06.379Z,86.50
2019-03-10T10:31:06.364Z,86.40
2019-03-10T10:32:06.363Z,86.30
2019-03-10T10:33:06.357Z,86.50
2019-03-10T10:34:06.412Z,86.40
2019-03-10T10:35:06.362Z,86.40
2019-03-10T10:37:06.393Z,86.30
2019-03-10T10:38:06.349Z,86.30
2019-03-10T10:40:06.368Z,86.30
2019-03-10T10:41:06.381Z,86.40
2019-03-10T10:42:06.372Z,86.50
2019-03-10T10:43:06.383Z,86.60
2019-03-10T10:44:06.370Z,86.70
2019-03-10T10:46:06.390Z,86.70
2019-03-10T10:47:06.367Z,86.60
2019-03-10T10:48:07.972Z,86.50
2019-03-10T10:49:06.389Z,86.50
2019-03-10T10:50:06.401Z,86.40
2019-03-10T10:51:06.414Z,86.30
2019-03-10T10:52:06.403Z,86.40
2019-03-10T10:53:06.396Z,86.40
2019-03-10T10:54:06.381Z,86.30
2019-03-10T10:55:06.417Z,86.50
2019-03-10T10:56:06.400Z,86.50
2019-03-10T10:57:06.508Z,86.50
2019-03-10T10:58:06.368Z,86.60
2019-03-10T10:59:06.395Z,86.80
2019-03-10T11:00:06.355Z,86.80
2019-03-10T11:01:06.379Z,86.60
2019-03-10T11:02:06.337Z,86.70
2019-03-10T11:03:06.370Z,86.70
2019-03-10T11:04:06.404Z,86.60
2019-03-10T11:05:06.381Z,86.60
2019-03-10T11:06:10.522Z,86.70
2019-03-10T11:07:06.405Z,86.70
2019-03-10T11:08:06.384Z,86.60
2019-03-10T11:09:06.375Z,86.80
2019-03-10T11:10:06.355Z,86.60
2019-03-10T11:11:06.394Z,86.10
2019-03-10T11:12:06.435Z,85.90
2019-03-10T11:13:06.393Z,85.60
2019-03-10T11:14:06.368Z,85.20
2019-03-10T11:15:06.536Z,84.90
2019-03-10T11:16:06.351Z,84.50
2019-03-10T11:17:06.424Z,84.40
2019-03-10T11:18:10.224Z,84.30
2019-03-10T11:19:06.422Z,84.20
2019-03-10T11:20:06.395Z,84.10
2019-03-10T11:21:06.433Z,84.10
2019-03-10T11:22:06.374Z,84.10
2019-03-10T11:23:06.384Z,84.20
2019-03-10T11:24:06.417Z,84.20
2019-03-10T11:25:06.414Z,84.20
2019-03-10T11:26:08.841Z,83.90
2019-03-10T11:27:06.462Z,83.70
2019-03-10T11:28:06.501Z,83.70
2019-03-10T11:29:06.393Z,83.40
2019-03-10T11:30:06.442Z,83.30
2019-03-10T11:31:06.531Z,83.00
2019-03-10T11:32:06.454Z,82.70
2019-03-10T11:33:06.406Z,82.50
2019-03-10T11:34:06.438Z,82.30
2019-03-10T11:35:10.767Z,82.00
2019-03-10T11:36:06.454Z,82.00
2019-03-10T11:37:06.424Z,82.20
2019-03-10T11:38:06.394Z,82.30
2019-03-10T11:39:06.436Z,82.40
2019-03-10T11:40:06.447Z,82.50
2019-03-10T11:41:06.439Z,82.60
2019-03-10T11:42:06.453Z,82.70
2019-03-10T11:43:06.613Z,82.80
2019-03-10T11:45:06.464Z,83.00
2019-03-10T11:45:11.129Z,82.90
2019-03-10T11:46:06.546Z,83.40
2019-03-10T11:47:06.454Z,83.40
2019-03-10T11:48:06.435Z,83.60
2019-03-10T11:49:06.505Z,84.00
2019-03-10T11:50:06.446Z,84.20
2019-03-10T11:51:06.437Z,84.30
2019-03-10T11:52:06.483Z,84.50
2019-03-10T11:53:19.733Z,84.50
2019-03-10T11:54:06.441Z,84.50
2019-03-10T11:55:06.546Z,84.50
2019-03-10T11:57:06.474Z,84.80
2019-03-10T11:57:11.209Z,84.90
2019-03-10T11:58:06.481Z,84.70
2019-03-10T11:59:06.432Z,84.70
2019-03-10T12:00:06.489Z,84.60
2019-03-10T12:01:06.423Z,84.50
2019-03-10T12:02:16.691Z,84.40
2019-03-10T12:04:06.468Z,84.20
2019-03-10T12:04:10.987Z,84.20
2019-03-10T12:05:06.424Z,83.90
2019-03-10T12:06:06.474Z,83.70
2019-03-10T12:07:06.443Z,83.40
2019-03-10T12:08:06.434Z,83.20
2019-03-10T12:09:06.483Z,83.10
2019-03-10T12:10:06.442Z,83.00
2019-03-10T12:11:06.463Z,82.80
2019-03-10T12:12:06.474Z,82.80
2019-03-10T12:14:06.553Z,82.80
2019-03-10T12:15:06.493Z,82.90
2019-03-10T12:16:06.470Z,83.00
2019-03-10T12:17:06.466Z,83.20
2019-03-10T12:18:06.407Z,83.30
2019-03-10T12:19:06.458Z,83.40
2019-03-10T12:20:06.530Z,83.60
2019-03-10T12:21:06.517Z,84.00
2019-03-10T12:22:06.471Z,84.60
2019-03-10T12:23:06.510Z,84.80
2019-03-10T12:24:06.479Z,85.20
2019-03-10T12:25:06.444Z,85.50
2019-03-10T12:26:06.491Z,85.20
2019-03-10T12:27:06.425Z,84.80
2019-03-10T12:28:06.467Z,84.70
2019-03-10T12:29:06.597Z,84.40
2019-03-10T12:30:06.453Z,84.40
2019-03-10T12:31:06.492Z,84.40
2019-03-10T12:32:06.538Z,84.20
2019-03-10T12:33:06.433Z,84.00
2019-03-10T12:34:06.523Z,83.10
2019-03-10T12:35:06.494Z,82.70
2019-03-10T12:36:06.486Z,82.10
2019-03-10T12:37:06.474Z,82.00
2019-03-10T12:38:06.487Z,81.40
2019-03-10T12:39:06.523Z,81.00
2019-03-10T12:40:06.479Z,80.00
2019-03-10T12:41:06.486Z,79.60
2019-03-10T12:42:06.480Z,79.50
2019-03-10T12:43:06.528Z,79.70
2019-03-10T12:44:06.460Z,79.50
2019-03-10T12:45:06.569Z,79.20
2019-03-10T12:46:06.538Z,79.00
2019-03-10T12:47:06.485Z,79.00
2019-03-10T12:48:06.536Z,79.00
2019-03-10T12:49:06.502Z,79.00
2019-03-10T12:50:06.495Z,78.70
2019-03-10T12:51:06.476Z,78.50
2019-03-10T12:52:10.627Z,78.70
2019-03-10T12:53:06.480Z,78.20
2019-03-10T12:54:06.503Z,77.40
2019-03-10T12:55:06.537Z,77.30
2019-03-10T12:56:06.479Z,77.40
2019-03-10T12:57:06.486Z,77.10
2019-03-10T12:58:06.498Z,77.10
2019-03-10T12:59:06.479Z,77.20
2019-03-10T13:00:08.082Z,77.60
2019-03-10T13:02:10.018Z,77.50
2019-03-10T13:03:06.489Z,77.50
2019-03-10T13:05:06.493Z,77.20
2019-03-10T13:06:06.475Z,77.30
2019-03-10T13:07:12.558Z,77.60
2019-03-10T13:08:06.507Z,77.70
2019-03-10T13:09:06.541Z,77.70